Nearby METAR Reports

 

KGRB - Ashwaubenon, Wisconsin, USA
Distance from station: NW 5mi, 8km
Updated: Sun, 19-Aug-2018 9:53am CDT
Clear
Clear
 Wind from calm
Wind: Calm
Temperature: 73°F , 23°C
Dew Point: 64°F , 18°C
Humidity: 74%
Barometer: 30.01 inHg , 1016.3 hPa
Clouds: Clear
Visibility: 10 miles , 16 km
2018/08/19 14:53 KGRB 191453Z 00000KT 10SM CLR 23/18 A3001 RMK AO2 SLP162 T02330178 51007
KATW - Appleton/Outagam, Wisconsin, USA
Distance from station: WSW 26mi, 42km
Updated: Sun, 19-Aug-2018 9:45am CDT
Clear
Clear
 Wind from calm
Wind: Calm
Temperature: 72°F , 22°C
Dew Point: 57°F , 14°C
Humidity: 61%
Barometer: 30.00 inHg , 1015.9 hPa
Clouds: Clear
Visibility: 10 miles , 16 km
2018/08/19 14:45 KATW 191445Z 00000KT 10SM SKC 22/14 A3000
 
KMTW - Manitowac Muni, Wisconsin, USA
Distance from station: SE 29mi, 47km
Updated: Sun, 19-Aug-2018 9:56am CDT
Partly cloudy
Partly cloudy
 Wind from varies
Wind: varies 5 mph , 7 km/h
Temperature: 72°F , 22°C
Dew Point: 64°F , 18°C
Humidity: 78%
Barometer: 30.01 inHg , 1016.3 hPa
Clouds: Partly cloudy
Visibility: 10 miles , 16 km
Cloud details: Partly cloudy 2200 ft
2018/08/19 14:56 KMTW 191456Z AUTO VRB04KT 10SM SCT022 22/18 A3001 RMK AO2 SLP177 T02220178 50001
KOCQ - Oconto, Wisconsin, USA
Distance from station: NNE 30mi, 49km
Updated: Sun, 19-Aug-2018 9:35am CDT
Clear
Clear
 Wind from calm
Wind: Calm
Temperature: 70°F , 21°C
Dew Point: 61°F , 16°C
Humidity: 73%
Barometer: 30.01 inHg , 1016.3 hPa
Clouds: Clear
Visibility: 10 miles , 16 km
2018/08/19 14:35 KOCQ 191435Z AUTO 00000KT 10SM CLR 21/16 A3001 RMK AO1 T02140156
 
KEZS - Shawano Muni, Wisconsin, USA
Distance from station: NW 35mi, 56km
Updated: Sun, 19-Aug-2018 9:55am CDT
Clear
Clear
 Wind from calm
Wind: Calm
Temperature: 72°F , 22°C
Dew Point: 64°F , 18°C
Humidity: 78%
Barometer: 30.01 inHg , 1016.3 hPa
Clouds: Clear
Visibility: 10 miles , 16 km
2018/08/19 14:55 KEZS 191455Z AUTO 00000KT 10SM CLR 22/18 A3001 RMK AO2 T02220179
KCLI - Clintonville, Wisconsin, USA
Distance from station: WNW 36mi, 58km
Updated: Sun, 19-Aug-2018 9:55am CDT
Clear
Clear
 Wind from calm
Wind: Calm
Temperature: 72°F , 22°C
Dew Point: 61°F , 16°C
Humidity: 69%
Barometer: 30.02 inHg , 1016.6 hPa
Clouds: Clear
Visibility: 10 miles , 16 km
2018/08/19 14:55 KCLI 191455Z AUTO 00000KT 10SM CLR 22/16 A3002 RMK AO2 T02180157
 
KOSH - Oshkosh, Wisconsin, USA
Distance from station: SW 41mi, 66km
Updated: Sun, 19-Aug-2018 9:53am CDT
Clear
Clear
 Wind from SE
Wind: SE 3 mph , 6 km/h
Temperature: 72°F , 22°C
Dew Point: 63°F , 17°C
Humidity: 73%
Barometer: 30.00 inHg , 1015.9 hPa
Clouds: Clear
Visibility: 7 miles , 11 km
2018/08/19 14:53 KOSH 191453Z 13003KT 7SM CLR 22/17 A3000 RMK AO2 SLP150 T02220167 50004
KSUE - Sturgeon Bay, Wisconsin, USA
Distance from station: NE 42mi, 68km
Updated: Sun, 19-Aug-2018 9:56am CDT
Clear
Clear
 Wind from N
Wind: N 7 mph , 11 km/h
Temperature: 73°F , 23°C
Dew Point: 64°F , 18°C
Humidity: 74%
Barometer: 30.02 inHg , 1016.6 hPa
Clouds: Clear
Visibility: 10 miles , 16 km
2018/08/19 14:56 KSUE 191456Z AUTO 36006KT 10SM CLR 23/18 A3002 RMK AO2 SLP180 T02280178 53001
 
KSBM - Sheboygan, Wisconsin, USA
Distance from station: SSE 46mi, 75km
Updated: Sun, 19-Aug-2018 9:53am CDT
Clear
Clear
 Wind from calm
Wind: Calm
Temperature: 73°F , 23°C
Dew Point: 64°F , 18°C
Humidity: 74%
Barometer: 30.01 inHg , 1016.3 hPa
Clouds: Clear
Visibility: 10 miles , 16 km
2018/08/19 14:53 KSBM 191453Z AUTO 00000KT 10SM CLR 23/18 A3001 RMK AO2 SLP159 T02280178 50001 TSNO
KPCZ - Waupaca, Wisconsin, USA
Distance from station: W 48mi, 77km
Updated: Sun, 19-Aug-2018 9:55am CDT
Clear
Clear
 Wind from calm
Wind: Calm
Temperature: 68°F , 20°C
Dew Point: 68°F , 20°C
Humidity: 100%
Barometer: 30.01 inHg , 1016.3 hPa
Clouds: Clear
Visibility: 10 miles , 16 km
2018/08/19 14:55 KPCZ 191455Z AUTO 00000KT 10SM CLR 20/20 A3001 RMK AO2 T02000198